Terminal Aerodrome Forecast
Issued by NWS Bismarck, ND

Home | Current Version | Previous Version | Graphics & Text | Print | Product List | Glossary On
Versions: 1 2 3 4 5 6 7 8 9 10 11 12 13 14 15
290
FTUS43 KBIS 050534
TAFISN
TAF
KISN 050534Z 0506/0606 35004KT 3SM -SN BR SCT008 OVC018
     FM050700 35006KT P6SM VCSH OVC035
     FM050800 34006KT P6SM OVC070
     FM051200 28004KT P6SM BKN090
     FM051700 24007KT P6SM SCT150=

USA.gov is the U.S. government's official web portal to all federal, state and local government web resources and services.